createdAt,value
2018-05-17T00:00:50.265Z,85.00
2018-05-17T00:02:55.079Z,86.20
2018-05-17T00:04:59.063Z,86.00
2018-05-17T00:07:02.966Z,85.90
2018-05-17T00:09:07.452Z,85.70
2018-05-17T00:11:11.418Z,85.20
2018-05-17T00:13:15.395Z,85.20
2018-05-17T00:15:21.587Z,85.60
2018-05-17T00:17:25.450Z,85.40
2018-05-17T00:19:30.084Z,85.30
2018-05-17T00:21:35.371Z,85.30
2018-05-17T00:23:40.687Z,85.70
2018-05-17T00:25:44.614Z,85.70
2018-05-17T00:27:49.341Z,85.80
2018-05-17T00:29:53.993Z,86.00
2018-05-17T00:31:57.839Z,86.00
2018-05-17T00:34:02.057Z,86.10
2018-05-17T00:36:06.034Z,85.60
2018-05-17T00:38:09.989Z,85.60
2018-05-17T00:40:14.266Z,85.60
2018-05-17T00:42:19.182Z,84.90
2018-05-17T00:44:23.877Z,84.80
2018-05-17T00:46:28.254Z,84.10
2018-05-17T00:48:32.185Z,84.40
2018-05-17T00:50:36.062Z,83.90
2018-05-17T00:52:40.278Z,83.70
2018-05-17T00:54:44.207Z,83.40
2018-05-17T00:56:48.029Z,82.90
2018-05-17T00:58:53.338Z,83.00
2018-05-17T01:00:57.198Z,83.20
2018-05-17T01:03:01.432Z,82.60
2018-05-17T01:05:06.645Z,83.50
2018-05-17T01:07:10.503Z,83.50
2018-05-17T01:09:15.159Z,83.40
2018-05-17T01:11:19.292Z,83.40
2018-05-17T01:13:24.232Z,83.10
2018-05-17T01:15:28.210Z,82.50
2018-05-17T01:17:33.499Z,82.20
2018-05-17T01:19:37.437Z,82.50
2018-05-17T01:21:41.345Z,82.70
2018-05-17T01:23:45.210Z,82.50
2018-05-17T01:25:49.138Z,82.00
2018-05-17T01:27:53.781Z,81.60
2018-05-17T01:29:57.985Z,81.60
2018-05-17T01:32:01.894Z,81.10
2018-05-17T01:34:05.908Z,80.70
2018-05-17T01:36:10.282Z,81.20
2018-05-17T01:38:26.165Z,80.80
2018-05-17T01:40:30.947Z,81.40
2018-05-17T02:01:40.716Z,80.70
2018-05-17T02:03:48.763Z,80.40
2018-05-17T02:05:53.743Z,80.90
2018-05-17T02:07:59.228Z,80.80
2018-05-17T02:10:03.300Z,80.90
2018-05-17T02:12:08.030Z,80.80
2018-05-17T02:14:14.296Z,80.80
2018-05-17T02:40:18.052Z,81.00
2018-05-17T02:42:23.941Z,78.80
2018-05-17T02:44:29.547Z,78.80
2018-05-17T02:46:35.773Z,79.20
2018-05-17T02:48:41.409Z,79.10
2018-05-17T02:50:46.874Z,78.90
2018-05-17T03:00:53.032Z,79.30
2018-05-17T03:11:25.941Z,80.20
2018-05-17T03:25:32.827Z,80.50
2018-05-17T03:27:40.085Z,81.70
2018-05-17T03:30:03.121Z,82.10
2018-05-17T03:32:11.324Z,82.00
2018-05-17T03:34:17.416Z,82.00
2018-05-17T03:39:20.792Z,82.10
2018-05-17T03:41:24.990Z,82.70
2018-05-17T03:43:28.908Z,83.20
2018-05-17T03:45:33.790Z,81.60
2018-05-17T03:47:37.691Z,81.20
2018-05-17T03:49:41.572Z,81.10
2018-05-17T03:51:45.456Z,81.10
2018-05-17T03:53:49.311Z,80.90
2018-05-17T03:55:53.252Z,80.40
2018-05-17T03:57:57.095Z,79.50
2018-05-17T04:00:00.853Z,78.80
2018-05-17T04:04:19.013Z,79.00
2018-05-17T04:06:39.095Z,78.90
2018-05-17T04:08:43.465Z,79.20
2018-05-17T04:10:48.140Z,79.20
2018-05-17T04:12:52.124Z,79.00
2018-05-17T04:14:56.480Z,78.90
2018-05-17T04:17:00.422Z,79.00
2018-05-17T04:19:04.327Z,78.60
2018-05-17T04:21:08.662Z,78.10
2018-05-17T04:23:12.598Z,78.10
2018-05-17T04:25:16.564Z,78.50
2018-05-17T04:27:20.511Z,78.50
2018-05-17T04:29:24.495Z,78.50
2018-05-17T04:31:28.380Z,78.60
2018-05-17T04:33:33.585Z,78.70
2018-05-17T04:35:37.459Z,78.80
2018-05-17T04:37:42.106Z,78.70
2018-05-17T04:39:46.369Z,78.80
2018-05-17T04:41:50.232Z,78.90
2018-05-17T04:43:54.109Z,78.70
2018-05-17T04:45:58.337Z,78.60
2018-05-17T04:48:02.255Z,78.80
2018-05-17T04:50:06.223Z,78.50
2018-05-17T04:52:10.098Z,79.50
2018-05-17T04:54:14.013Z,79.80
2018-05-17T04:56:17.814Z,79.60
2018-05-17T04:58:22.458Z,78.80
2018-05-17T05:00:27.279Z,78.20
2018-05-17T05:02:31.278Z,78.20
2018-05-17T05:04:35.644Z,78.50
2018-05-17T05:06:39.613Z,78.50
2018-05-17T05:08:43.514Z,78.40
2018-05-17T05:10:47.736Z,78.40
2018-05-17T05:12:51.620Z,78.30
2018-05-17T05:14:55.486Z,78.00
2018-05-17T05:16:59.940Z,77.70
2018-05-17T05:19:03.996Z,77.90
2018-05-17T05:21:07.963Z,77.50
2018-05-17T05:23:14.294Z,77.80
2018-05-17T05:25:19.155Z,77.70
2018-05-17T05:27:23.033Z,77.70
2018-05-17T05:29:27.695Z,76.80
2018-05-17T05:31:32.182Z,76.20
2018-05-17T05:33:36.634Z,76.50
2018-05-17T05:35:41.786Z,77.40
2018-05-17T05:37:46.874Z,77.50
2018-05-17T05:39:50.985Z,76.60
2018-05-17T05:41:55.129Z,76.90
2018-05-17T05:43:59.056Z,76.80
2018-05-17T05:46:04.516Z,76.60
2018-05-17T05:48:09.020Z,77.00
2018-05-17T05:50:12.970Z,76.60
2018-05-17T05:52:17.692Z,75.40
2018-05-17T05:54:21.860Z,75.40
2018-05-17T05:56:25.804Z,76.40
2018-05-17T05:58:31.220Z,75.80
2018-05-17T06:00:36.964Z,75.80
2018-05-17T06:02:42.540Z,75.80
2018-05-17T06:04:47.580Z,76.90
2018-05-17T06:06:52.659Z,76.90
2018-05-17T06:08:56.455Z,76.80
2018-05-17T06:11:00.318Z,77.50
2018-05-17T06:13:04.981Z,77.70
2018-05-17T06:15:08.896Z,77.60
2018-05-17T06:17:12.817Z,76.20
2018-05-17T06:19:17.737Z,76.40
2018-05-17T06:21:21.645Z,76.30
2018-05-17T06:23:25.514Z,76.80
2018-05-17T06:25:30.832Z,77.70
2018-05-17T06:27:35.506Z,78.40
2018-05-17T06:29:39.861Z,78.40
2018-05-17T06:31:46.513Z,78.10
2018-05-17T06:33:50.409Z,78.10
2018-05-17T06:35:54.313Z,78.30
2018-05-17T06:37:58.581Z,78.40
2018-05-17T06:40:02.738Z,78.50
2018-05-17T06:42:06.635Z,77.80
2018-05-17T06:44:11.028Z,77.00
2018-05-17T06:46:16.457Z,75.70
2018-05-17T06:48:20.428Z,75.70
2018-05-17T06:50:26.734Z,75.40
2018-05-17T06:52:30.738Z,75.40
2018-05-17T06:54:35.472Z,74.00
2018-05-17T06:56:39.868Z,73.00
2018-05-17T06:58:44.632Z,74.10
2018-05-17T07:00:48.551Z,73.80
2018-05-17T07:02:52.762Z,72.60
2018-05-17T07:04:57.469Z,72.20
2018-05-17T07:07:01.414Z,71.10
2018-05-17T07:09:11.438Z,71.20
2018-05-17T07:11:25.249Z,71.20
2018-05-17T07:13:31.443Z,70.40
2018-05-17T07:15:35.774Z,69.70
2018-05-17T07:17:41.178Z,71.40
2018-05-17T07:19:45.174Z,71.30
2018-05-17T07:21:53.454Z,71.80
2018-05-17T07:23:57.360Z,72.20
2018-05-17T07:26:01.928Z,72.20
2018-05-17T07:28:05.962Z,71.30
2018-05-17T07:30:09.923Z,70.90
2018-05-17T07:32:15.634Z,72.50
2018-05-17T07:34:19.963Z,71.60
2018-05-17T07:36:23.973Z,71.70
2018-05-17T07:38:28.012Z,70.10
2018-05-17T07:44:30.980Z,70.20
2018-05-17T07:56:11.893Z,68.90
2018-05-17T07:58:32.771Z,68.30
2018-05-17T08:06:49.063Z,68.20
2018-05-17T08:08:54.609Z,69.20
2018-05-17T08:11:30.565Z,65.20
2018-05-17T08:13:40.944Z,65.20
2018-05-17T08:15:57.970Z,66.90
2018-05-17T08:18:40.671Z,66.90
2018-05-17T08:20:51.477Z,66.90
2018-05-17T08:23:02.554Z,65.10
2018-05-17T08:25:15.177Z,65.40
2018-05-17T08:30:30.285Z,66.10
2018-05-17T08:32:42.040Z,64.20
2018-05-17T08:35:06.958Z,64.40
2018-05-17T08:37:25.175Z,64.40
2018-05-17T08:39:35.455Z,64.60
2018-05-17T08:42:11.538Z,64.00
2018-05-17T08:47:01.102Z,62.90
2018-05-17T08:49:10.865Z,63.40
2018-05-17T09:07:51.951Z,58.40
2018-05-17T09:10:05.919Z,58.30
2018-05-17T09:12:15.094Z,59.30
2018-05-17T09:14:24.756Z,59.30
2018-05-17T09:24:34.537Z,59.90
2018-05-17T09:27:08.423Z,59.40
2018-05-17T09:32:09.773Z,55.20
2018-05-17T09:34:19.826Z,55.10
2018-05-17T09:36:42.357Z,55.80
2018-05-17T09:39:09.666Z,54.80
2018-05-17T09:41:21.790Z,53.90
2018-05-17T09:52:34.872Z,50.50
2018-05-17T09:58:17.204Z,46.40
2018-05-17T10:00:26.974Z,45.30
2018-05-17T10:02:40.616Z,44.10
2018-05-17T10:04:48.448Z,42.10
2018-05-17T10:06:57.531Z,41.80
2018-05-17T10:09:14.537Z,42.50
2018-05-17T10:11:33.764Z,42.00
2018-05-17T10:13:44.109Z,42.40
2018-05-17T10:15:51.776Z,42.30
2018-05-17T10:23:19.740Z,41.50
2018-05-17T10:25:37.166Z,41.90
2018-05-17T10:27:49.481Z,40.30
2018-05-17T10:29:57.347Z,40.90
2018-05-17T10:37:16.805Z,40.90
2018-05-17T10:39:40.095Z,40.00
2018-05-17T10:42:05.420Z,39.40
2018-05-17T10:44:35.316Z,40.40
2018-05-17T10:46:42.980Z,38.80
2018-05-17T10:48:50.535Z,38.20
2018-05-17T10:52:56.198Z,38.90
2018-05-17T10:55:14.067Z,38.90
2018-05-17T10:57:33.212Z,40.10
2018-05-17T11:00:04.954Z,39.90
2018-05-17T11:02:38.558Z,39.40
2018-05-17T11:07:40.737Z,38.30
2018-05-17T11:12:58.226Z,37.20
2018-05-17T11:15:05.218Z,37.10
2018-05-17T11:17:10.003Z,37.50
2018-05-17T11:19:14.118Z,38.20
2018-05-17T11:21:21.004Z,39.70
2018-05-17T11:23:31.317Z,39.50
2018-05-17T11:25:38.218Z,40.70
2018-05-17T11:27:45.346Z,40.20
2018-05-17T11:30:01.153Z,38.90
2018-05-17T11:32:14.268Z,37.00
2018-05-17T11:34:25.781Z,39.00
2018-05-17T11:36:35.933Z,39.20
2018-05-17T11:38:40.865Z,38.00
2018-05-17T11:40:45.889Z,38.00
2018-05-17T11:42:51.483Z,36.80
2018-05-17T11:44:57.774Z,39.60
2018-05-17T11:47:03.585Z,41.00
2018-05-17T11:49:07.823Z,40.90
2018-05-17T11:51:11.736Z,40.30
2018-05-17T11:53:16.812Z,39.80
2018-05-17T11:55:22.101Z,39.50
2018-05-17T11:57:28.402Z,40.10
2018-05-17T11:59:47.212Z,40.00
2018-05-17T12:01:57.928Z,39.90
2018-05-17T12:04:29.095Z,40.20
2018-05-17T12:06:36.185Z,39.40
2018-05-17T12:08:46.389Z,40.40
2018-05-17T12:10:54.160Z,40.40
2018-05-17T12:13:02.526Z,39.50
2018-05-17T12:15:15.957Z,36.90
2018-05-17T12:17:24.996Z,35.70
2018-05-17T12:19:41.678Z,36.00
2018-05-17T12:21:49.129Z,37.10
2018-05-17T12:24:02.481Z,38.60
2018-05-17T12:26:07.182Z,38.50
2018-05-17T12:35:30.435Z,36.50
2018-05-17T12:37:40.544Z,36.50
2018-05-17T12:39:54.751Z,35.90
2018-05-17T12:41:59.378Z,35.10
2018-05-17T12:44:04.249Z,35.90
2018-05-17T12:46:14.571Z,36.10
2018-05-17T12:48:18.747Z,36.20
2018-05-17T12:50:27.891Z,36.20
2018-05-17T12:52:36.632Z,35.40
2018-05-17T12:54:41.834Z,35.40
2018-05-17T12:56:48.536Z,35.60
2018-05-17T12:59:01.835Z,33.30
2018-05-17T13:05:56.241Z,33.80
2018-05-17T13:25:53.837Z,31.70
2018-05-17T13:51:19.358Z,28.10
2018-05-17T13:53:39.603Z,26.60
2018-05-17T13:55:48.457Z,26.50
2018-05-17T13:57:58.808Z,26.50
2018-05-17T14:00:09.978Z,26.40
2018-05-17T14:02:17.365Z,25.90
2018-05-17T14:04:32.669Z,25.90
2018-05-17T14:06:53.487Z,24.60
2018-05-17T14:09:10.465Z,25.80
2018-05-17T14:11:20.002Z,26.20
2018-05-17T14:13:26.478Z,25.80
2018-05-17T14:18:41.848Z,26.40
2018-05-17T14:26:27.574Z,26.60
2018-05-17T14:28:34.283Z,27.50
2018-05-17T14:30:46.805Z,27.60
2018-05-17T14:33:05.281Z,27.50
2018-05-17T14:35:20.041Z,27.50
2018-05-17T14:37:27.093Z,27.00
2018-05-17T14:39:51.644Z,27.90
2018-05-17T14:42:55.858Z,27.90
2018-05-17T14:45:18.700Z,27.40
2018-05-17T14:47:25.068Z,27.00
2018-05-17T14:49:31.605Z,26.40
2018-05-17T14:54:10.492Z,26.30
2018-05-17T14:56:16.825Z,25.70
2018-05-17T14:58:22.247Z,25.70
2018-05-17T15:00:28.415Z,25.80
2018-05-17T15:02:35.952Z,26.30
2018-05-17T15:04:40.565Z,26.10
2018-05-17T15:06:47.389Z,26.40
2018-05-17T15:08:55.445Z,26.30
2018-05-17T15:11:03.889Z,26.70
2018-05-17T15:13:10.004Z,27.00
2018-05-17T15:24:52.265Z,25.70
2018-05-17T15:26:57.769Z,26.10
2018-05-17T15:29:06.332Z,26.40
2018-05-17T15:31:13.027Z,27.60
2018-05-17T15:33:17.255Z,27.30
2018-05-17T15:35:22.421Z,27.00
2018-05-17T15:37:30.651Z,27.90
2018-05-17T15:39:37.869Z,27.50
2018-05-17T15:42:07.135Z,27.50
2018-05-17T15:45:57.809Z,27.50
2018-05-17T15:48:02.837Z,26.80
2018-05-17T15:50:20.684Z,25.60
2018-05-17T15:55:01.732Z,25.30
2018-05-17T15:57:06.137Z,25.90
2018-05-17T15:59:11.910Z,25.20
2018-05-17T16:01:18.652Z,25.10
2018-05-17T16:03:23.828Z,25.20
2018-05-17T16:05:28.503Z,25.80
2018-05-17T16:07:34.136Z,27.00
2018-05-17T16:47:02.123Z,27.20
2018-05-17T16:56:24.321Z,27.40
2018-05-17T16:58:42.182Z,27.60
2018-05-17T17:10:25.433Z,28.30
2018-05-17T17:31:34.658Z,28.80
2018-05-17T17:33:47.244Z,29.10
2018-05-17T17:35:54.035Z,28.90
2018-05-17T17:37:58.897Z,28.60
2018-05-17T17:40:06.953Z,28.80
2018-05-17T17:44:22.965Z,29.40
2018-05-17T17:46:35.282Z,29.80
2018-05-17T17:53:13.167Z,32.00
2018-05-17T17:57:35.059Z,34.70
2018-05-17T17:59:42.463Z,36.10
2018-05-17T18:01:48.209Z,37.00
2018-05-17T18:03:58.386Z,37.70
2018-05-17T18:06:07.231Z,38.50
2018-05-17T18:08:23.773Z,38.80
2018-05-17T18:12:48.839Z,40.30
2018-05-17T18:14:53.576Z,40.80
2018-05-17T18:17:03.475Z,41.00
2018-05-17T18:21:22.709Z,41.70
2018-05-17T18:23:30.030Z,42.50
2018-05-17T18:25:35.693Z,42.50
2018-05-17T18:27:45.295Z,42.80
2018-05-17T18:29:53.517Z,43.20
2018-05-17T18:31:57.964Z,43.50
2018-05-17T18:36:19.318Z,44.50
2018-05-17T18:40:46.663Z,45.60
2018-05-17T18:47:35.259Z,46.70
2018-05-17T19:39:53.381Z,55.60
2018-05-17T19:56:16.900Z,55.00
2018-05-17T19:58:24.900Z,54.70
2018-05-17T20:33:44.642Z,56.30
2018-05-17T20:35:59.424Z,56.20
2018-05-17T20:40:34.051Z,55.70
2018-05-17T20:42:46.649Z,55.60
2018-05-17T20:45:00.012Z,55.90
2018-05-17T20:47:05.019Z,56.00
2018-05-17T20:49:15.514Z,56.50
2018-05-17T20:51:19.706Z,56.40
2018-05-17T20:53:23.811Z,56.30
2018-05-17T20:55:28.060Z,56.80
2018-05-17T20:57:32.823Z,57.00
2018-05-17T20:59:37.122Z,57.10
2018-05-17T21:01:41.695Z,56.90
2018-05-17T21:03:48.217Z,57.30
2018-05-17T21:05:52.552Z,57.50
2018-05-17T21:07:56.832Z,57.90
2018-05-17T21:10:02.834Z,58.50
2018-05-17T21:12:07.153Z,58.00
2018-05-17T21:14:12.951Z,58.00
2018-05-17T21:16:18.915Z,58.20
2018-05-17T21:18:25.557Z,58.30
2018-05-17T21:20:32.739Z,58.00
2018-05-17T21:22:39.569Z,58.20
2018-05-17T21:24:44.433Z,57.50
2018-05-17T21:26:52.194Z,59.10
2018-05-17T21:28:57.122Z,59.00
2018-05-17T21:31:03.641Z,58.60
2018-05-17T21:33:08.382Z,58.60
2018-05-17T21:35:21.367Z,58.60
2018-05-17T21:37:26.414Z,58.90
2018-05-17T21:39:32.170Z,58.60
2018-05-17T21:41:37.830Z,57.40
2018-05-17T21:43:42.169Z,58.80
2018-05-17T21:45:47.464Z,59.50
2018-05-17T21:47:55.112Z,59.20
2018-05-17T21:50:01.841Z,60.40
2018-05-17T21:52:09.007Z,60.40
2018-05-17T21:54:13.695Z,61.10
2018-05-17T21:56:20.940Z,62.10
2018-05-17T21:58:31.970Z,61.70
2018-05-17T22:03:23.796Z,63.80
2018-05-17T23:00:14.948Z,66.90
2018-05-17T23:02:30.181Z,66.90
2018-05-17T23:06:50.878Z,66.10
2018-05-17T23:09:04.626Z,66.10
2018-05-17T23:11:13.430Z,65.70
2018-05-17T23:13:18.018Z,66.00
2018-05-17T23:15:24.157Z,66.20
2018-05-17T23:17:31.588Z,66.20
2018-05-17T23:19:42.166Z,66.10
2018-05-17T23:21:49.718Z,66.50
2018-05-17T23:23:56.745Z,67.20
2018-05-17T23:28:34.584Z,67.90
2018-05-17T23:38:21.283Z,68.60
2018-05-17T23:40:37.117Z,69.30
2018-05-17T23:42:47.387Z,69.50
2018-05-17T23:44:51.917Z,69.50
2018-05-17T23:46:55.954Z,69.20
2018-05-17T23:49:01.332Z,68.90
2018-05-17T23:51:07.496Z,68.50
2018-05-17T23:53:12.512Z,67.90
2018-05-17T23:55:21.578Z,67.50
2018-05-17T23:57:25.820Z,68.20
2018-05-17T23:59:30.027Z,67.80
